createdAt,value
2023-02-11T00:03:45.966Z,65.95
2023-02-11T00:08:49.070Z,65.83
2023-02-11T00:13:52.805Z,66.15
2023-02-11T00:18:56.121Z,65.83
2023-02-11T00:24:02.154Z,66.12
2023-02-11T00:29:06.116Z,66.32
2023-02-11T00:34:09.149Z,66.29
2023-02-11T00:39:12.181Z,66.02
2023-02-11T00:44:18.354Z,66.59
2023-02-11T00:49:24.044Z,66.64
2023-02-11T00:54:29.887Z,67.37
2023-02-11T00:59:33.069Z,67.01
2023-02-11T01:04:37.660Z,66.95
2023-02-11T01:09:40.760Z,67.08
2023-02-11T01:14:44.633Z,66.94
2023-02-11T01:19:50.621Z,67.43
2023-02-11T01:24:53.675Z,67.43
2023-02-11T01:29:56.866Z,67.28
2023-02-11T01:35:00.161Z,67.61
2023-02-11T01:40:07.982Z,67.98
2023-02-11T01:45:41.741Z,67.75
2023-02-11T01:50:47.781Z,67.45
2023-02-11T01:56:11.634Z,67.90
2023-02-11T02:01:20.487Z,68.08
2023-02-11T02:06:31.390Z,68.21
2023-02-11T02:11:34.387Z,68.07
2023-02-11T02:16:38.954Z,67.99
2023-02-11T02:22:14.583Z,67.98
2023-02-11T02:27:32.937Z,67.68
2023-02-11T02:32:42.300Z,67.67
2023-02-11T02:38:06.206Z,67.65
2023-02-11T02:43:11.473Z,68.18
2023-02-11T02:48:26.871Z,68.52
2023-02-11T02:54:25.117Z,68.23
2023-02-11T03:00:00.301Z,67.92
2023-02-11T03:05:18.816Z,68.41
2023-02-11T03:10:24.411Z,67.66
2023-02-11T03:15:31.273Z,67.51
2023-02-11T03:20:37.730Z,67.82
2023-02-11T03:25:53.529Z,67.40
2023-02-11T03:31:15.457Z,67.60
2023-02-11T03:36:34.730Z,67.19
2023-02-11T03:41:39.537Z,66.92
2023-02-11T03:46:48.655Z,67.24
2023-02-11T03:51:53.981Z,66.77
2023-02-11T03:56:59.822Z,66.64
2023-02-11T04:02:02.910Z,66.78
2023-02-11T04:07:05.942Z,66.56
2023-02-11T04:12:09.157Z,66.80
2023-02-11T04:17:14.570Z,65.74
2023-02-11T04:22:17.552Z,66.07
2023-02-11T04:27:20.591Z,66.58
2023-02-11T04:32:24.041Z,66.74
2023-02-11T04:37:26.983Z,65.92
2023-02-11T04:42:30.057Z,65.36
2023-02-11T04:47:33.032Z,65.36
2023-02-11T04:52:36.091Z,64.91
2023-02-11T04:57:39.115Z,65.00
2023-02-11T05:02:42.200Z,63.91
2023-02-11T05:07:45.186Z,64.44
2023-02-11T05:12:49.628Z,63.23
2023-02-11T05:17:53.748Z,62.29
2023-02-11T05:22:56.797Z,62.39
2023-02-11T05:27:59.874Z,62.22
2023-02-11T05:33:02.935Z,61.52
2023-02-11T05:38:06.034Z,60.29
2023-02-11T05:43:09.943Z,59.58
2023-02-11T05:48:13.074Z,58.91
2023-02-11T05:53:18.778Z,58.31
2023-02-11T05:58:22.011Z,59.11
2023-02-11T06:03:25.123Z,58.81
2023-02-11T06:08:28.192Z,58.75
2023-02-11T06:13:31.234Z,58.65
2023-02-11T06:18:34.366Z,58.27
2023-02-11T06:23:38.171Z,57.56
2023-02-11T06:28:42.114Z,57.93
2023-02-11T06:33:45.319Z,57.62
2023-02-11T06:38:49.441Z,57.45
2023-02-11T06:43:53.266Z,57.13
2023-02-11T06:48:57.261Z,57.73
2023-02-11T06:54:00.304Z,57.66
2023-02-11T06:59:03.794Z,57.85
2023-02-11T07:04:08.424Z,57.29
2023-02-11T07:09:11.474Z,57.50
2023-02-11T07:14:14.640Z,56.43
2023-02-11T07:19:17.962Z,56.99
2023-02-11T07:24:21.192Z,56.68
2023-02-11T07:29:24.248Z,56.51
2023-02-11T07:34:27.353Z,56.30
2023-02-11T07:39:30.423Z,56.19
2023-02-11T07:44:34.727Z,55.87
2023-02-11T07:49:37.774Z,55.90
2023-02-11T07:54:41.047Z,55.54
2023-02-11T07:59:44.265Z,55.69
2023-02-11T08:04:47.783Z,55.05
2023-02-11T08:09:50.823Z,55.68
2023-02-11T08:14:54.092Z,54.82
2023-02-11T08:19:57.164Z,54.62
2023-02-11T08:25:00.410Z,54.09
2023-02-11T08:30:04.007Z,54.00
2023-02-11T08:35:08.480Z,54.08
2023-02-11T08:40:11.726Z,54.17
2023-02-11T08:45:15.779Z,53.32
2023-02-11T08:50:18.982Z,53.17
2023-02-11T08:55:22.061Z,53.57
2023-02-11T09:00:27.933Z,53.21
2023-02-11T09:05:30.936Z,53.33
2023-02-11T09:10:34.930Z,53.52
2023-02-11T09:15:38.482Z,53.39
2023-02-11T09:20:43.843Z,53.06
2023-02-11T09:25:46.972Z,53.34
2023-02-11T09:30:50.482Z,53.21
2023-02-11T09:35:53.731Z,53.40
2023-02-11T09:40:59.861Z,53.47
2023-02-11T09:46:03.475Z,53.27
2023-02-11T09:51:13.346Z,53.74
2023-02-11T09:56:16.570Z,53.22
2023-02-11T10:01:55.257Z,53.84
2023-02-11T10:07:03.901Z,53.87
2023-02-11T10:12:19.596Z,54.35
2023-02-11T10:17:44.403Z,54.54
2023-02-11T10:22:56.114Z,54.23
2023-02-11T10:28:01.762Z,54.05
2023-02-11T10:33:21.673Z,53.59
2023-02-11T10:38:25.284Z,53.81
2023-02-11T10:43:31.162Z,54.30
2023-02-11T10:48:53.013Z,54.20
2023-02-11T10:54:04.954Z,53.26
2023-02-11T10:59:14.988Z,53.29
2023-02-11T11:04:30.194Z,53.25
2023-02-11T11:10:03.935Z,53.58
2023-02-11T11:15:22.373Z,53.94
2023-02-11T11:20:35.693Z,53.75
2023-02-11T11:25:41.920Z,53.24
2023-02-11T11:30:45.013Z,53.37
2023-02-11T11:36:13.902Z,52.68
2023-02-11T11:41:27.425Z,52.34
2023-02-11T11:46:40.843Z,52.65
2023-02-11T11:51:46.037Z,52.57
2023-02-11T11:57:00.274Z,52.80
2023-02-11T12:02:42.995Z,52.19
2023-02-11T12:08:08.770Z,52.28
2023-02-11T12:13:33.253Z,52.12
2023-02-11T12:19:10.516Z,52.18
2023-02-11T12:24:27.830Z,52.16
2023-02-11T12:30:08.963Z,51.48
2023-02-11T12:35:33.645Z,52.35
2023-02-11T12:40:56.100Z,51.83
2023-02-11T12:46:30.782Z,52.01
2023-02-11T12:51:45.771Z,52.46
2023-02-11T12:57:02.635Z,52.24
2023-02-11T13:02:22.217Z,52.19
2023-02-11T13:07:45.484Z,52.79
2023-02-11T13:13:10.452Z,53.23
2023-02-11T13:18:30.702Z,52.88
2023-02-11T13:23:42.149Z,52.93
2023-02-11T13:29:20.785Z,53.40
2023-02-11T13:34:44.343Z,53.68
2023-02-11T13:40:01.946Z,54.21
2023-02-11T13:45:19.145Z,54.60
2023-02-11T13:50:25.377Z,55.27
2023-02-11T13:55:29.681Z,55.18
2023-02-11T14:00:35.599Z,56.25
2023-02-11T14:05:57.121Z,56.43
2023-02-11T14:11:24.161Z,56.91
2023-02-11T14:16:37.610Z,57.29
2023-02-11T14:21:44.702Z,57.39
2023-02-11T14:26:52.020Z,58.34
2023-02-11T14:32:38.359Z,58.99
2023-02-11T14:37:50.614Z,59.39
2023-02-11T14:42:55.783Z,59.51
2023-02-11T14:48:08.582Z,60.39
2023-02-11T14:53:17.802Z,60.02
2023-02-11T14:58:26.821Z,60.22
2023-02-11T15:03:41.196Z,60.49
2023-02-11T15:08:48.762Z,61.23
2023-02-11T15:13:54.974Z,62.30
2023-02-11T15:19:03.207Z,62.04
2023-02-11T15:24:33.107Z,61.74
2023-02-11T15:29:43.130Z,63.02
2023-02-11T15:34:49.387Z,62.79
2023-02-11T15:39:54.110Z,63.03
2023-02-11T15:45:16.979Z,63.41
2023-02-11T15:50:29.476Z,63.56
2023-02-11T15:55:33.255Z,63.79
2023-02-11T16:00:45.938Z,63.06
2023-02-11T16:05:49.197Z,63.38
2023-02-11T16:11:03.501Z,63.73
2023-02-11T16:16:26.237Z,64.09
2023-02-11T16:21:35.585Z,64.20
2023-02-11T16:26:43.449Z,64.62
2023-02-11T16:31:48.700Z,64.74
2023-02-11T16:36:53.132Z,64.82
2023-02-11T16:41:56.524Z,65.15
2023-02-11T16:47:01.494Z,64.81
2023-02-11T16:52:09.577Z,65.09
2023-02-11T16:57:16.707Z,65.12
2023-02-11T17:02:31.488Z,65.52
2023-02-11T17:07:34.516Z,65.45
2023-02-11T17:12:37.531Z,66.05
2023-02-11T17:17:40.558Z,66.39
2023-02-11T17:22:43.724Z,66.43
2023-02-11T17:27:50.684Z,66.77
2023-02-11T17:32:55.520Z,65.84
2023-02-11T17:37:59.551Z,66.71
2023-02-11T17:43:02.804Z,67.06
2023-02-11T17:48:06.022Z,66.26
2023-02-11T17:53:09.194Z,66.81
2023-02-11T17:58:12.268Z,66.86
2023-02-11T18:03:15.339Z,66.99
2023-02-11T18:08:18.808Z,67.31
2023-02-11T18:13:22.018Z,67.39
2023-02-11T18:18:25.172Z,67.20
2023-02-11T18:23:29.012Z,66.66
2023-02-11T18:28:32.041Z,68.00
2023-02-11T18:33:39.491Z,67.90
2023-02-11T18:38:44.714Z,68.05
2023-02-11T18:43:47.790Z,67.58
2023-02-11T18:48:55.568Z,68.21
2023-02-11T18:54:01.445Z,67.85
2023-02-11T18:59:04.987Z,67.41
2023-02-11T19:04:08.364Z,67.79
2023-02-11T19:09:14.946Z,67.88
2023-02-11T19:14:38.980Z,68.44
2023-02-11T19:19:42.114Z,68.76
2023-02-11T19:24:46.574Z,68.57
2023-02-11T19:29:49.717Z,68.50
2023-02-11T19:34:55.750Z,69.18
2023-02-11T19:39:58.793Z,69.08
2023-02-11T19:45:01.791Z,68.88
2023-02-11T19:50:06.558Z,68.69
2023-02-11T19:55:09.663Z,68.63
2023-02-11T20:00:13.411Z,69.11
2023-02-11T20:05:18.286Z,68.24
2023-02-11T20:10:21.287Z,68.52
2023-02-11T20:15:24.300Z,68.40
2023-02-11T20:20:27.363Z,68.55
2023-02-11T20:25:30.443Z,68.20
2023-02-11T20:30:33.614Z,68.48
2023-02-11T20:35:36.996Z,68.03
2023-02-11T20:40:40.075Z,68.12
2023-02-11T20:45:43.109Z,68.18
2023-02-11T20:50:48.317Z,68.51
2023-02-11T20:55:51.698Z,68.51
2023-02-11T21:00:54.930Z,68.83
2023-02-11T21:06:01.056Z,68.25
2023-02-11T21:11:04.452Z,68.10
2023-02-11T21:16:09.930Z,68.01
2023-02-11T21:21:13.012Z,67.73
2023-02-11T21:26:17.527Z,67.71
2023-02-11T21:31:27.274Z,67.66
2023-02-11T21:36:31.371Z,67.68
2023-02-11T21:41:34.412Z,67.58
2023-02-11T21:46:37.638Z,67.52
2023-02-11T21:51:40.758Z,67.80
2023-02-11T21:56:43.752Z,67.71
2023-02-11T22:01:49.491Z,67.51
2023-02-11T22:06:53.239Z,67.40
2023-02-11T22:11:56.602Z,66.79
2023-02-11T22:17:02.439Z,67.68
2023-02-11T22:22:08.698Z,67.10
2023-02-11T22:27:12.656Z,66.95
2023-02-11T22:32:18.095Z,67.93
2023-02-11T22:37:21.271Z,67.26
2023-02-11T22:42:24.264Z,67.10
2023-02-11T22:47:28.003Z,67.68
2023-02-11T22:52:31.084Z,67.06
2023-02-11T22:57:34.110Z,67.13
2023-02-11T23:02:37.231Z,67.74
2023-02-11T23:07:40.240Z,67.49
2023-02-11T23:12:43.311Z,67.82
2023-02-11T23:17:46.369Z,67.67
2023-02-11T23:22:49.712Z,67.54
2023-02-11T23:27:52.772Z,67.80
2023-02-11T23:32:55.758Z,67.29
2023-02-11T23:37:58.872Z,67.14
2023-02-11T23:43:04.480Z,68.12
2023-02-11T23:48:07.555Z,67.02
2023-02-11T23:53:11.578Z,66.76
2023-02-11T23:58:15.288Z,66.75
